Terminal Aerodrome Forecast
Issued by NWS

Home | Current Version | Previous Version | Text Only | Print | Product List | Glossary Off
Versions: 1 2 3 4 5 6 7 8 9 10 11 12 13 14 15 16 17 18 19 20

000
FTUS43 KBIS 262157 AAA
TAFMOT
TAF AMD
KMOT 262157Z 2622/2718 18009KT P6SM VCTS BKN080CB
      TEMPO 2622/2702 VRB15G25KT -TSRA SCT050 BKN080CB
     FM270300 15006KT P6SM SCT080 BKN150
     FM271400 10012KT P6SM -SHRA VCTS BKN040CB=

USA.gov is the U.S. government's official web portal to all federal, state and local government web resources and services.